Thursday, September 3, 2015, 11:43 PM EDT

KFDK, Frederick, Frederick Municipal Airport

Location: Frederick, MD, United States Lat: 39.417
Local Time: 11:43 PM EDT ( 3:43 GMT) Lon: -77.374
Time Zone: US/Eastern Elev: 301 ft

Show me the last for .
Show Decoded

2015-09-03 23:20 METAR KFDK 040320Z AUTO 00000KT 7SM CLR 23/22 A2994 RMK AO2 =
2015-09-03 23:00 METAR KFDK 040300Z AUTO 18003KT 7SM CLR 23/22 A2994 RMK AO2 =
2015-09-03 22:40 METAR KFDK 040240Z AUTO 00000KT 7SM CLR 23/22 A2993 RMK AO2 LTG DSNT SW =
2015-09-03 22:20 METAR KFDK 040220Z AUTO 00000KT 7SM CLR 23/23 A2993 RMK AO2 LTG DSNT E =
2015-09-03 22:00 METAR KFDK 040200Z AUTO 00000KT 7SM CLR 23/22 A2993 RMK AO2 =
2015-09-03 21:40 METAR KFDK 040140Z AUTO 00000KT 7SM CLR 23/23 A2993 RMK AO2 =
2015-09-03 21:20 METAR KFDK 040120Z AUTO 00000KT 7SM SCT110 23/23 A2993 RMK AO2 =
2015-09-03 21:00 METAR KFDK 040100Z AUTO 00000KT 7SM SCT100 24/23 A2993 RMK AO2 =
2015-09-03 20:40 METAR KFDK 040040Z AUTO 00000KT 10SM SCT090 25/22 A2992 RMK AO2 LTG DSNT E AND W
                 =
2015-09-03 19:48 METAR KFDK 032348Z 00000KT 10SM SKC 28/23 A2990 =
2015-09-03 18:50 METAR KFDK 032250Z 33005KT 10SM SKC 31/22 A2989 =
2015-09-03 17:45 METAR KFDK 032145Z 35005KT 10SM SKC 33/21 A2988 =
2015-09-03 16:50 METAR KFDK 032050Z 33006KT 10SM SKC 32/21 A2988 =
2015-09-03 15:46 METAR KFDK 031946Z 34003KT 10SM SKC 34/19 A2989 =
2015-09-03 14:45 METAR KFDK 031845Z 36004KT 10SM SKC 33/19 A2992 =
2015-09-03 13:47 METAR KFDK 031747Z 32003KT 10SM SCT050 33/23 A2993 =
2015-09-03 12:58 METAR KFDK 031658Z 00000KT 10SM SKC 32/21 A2994 =
2015-09-03 11:50 METAR KFDK 031550Z 00000KT 10SM SKC 31/21 A2996 =
2015-09-03 10:50 METAR KFDK 031450Z 00000KT 10SM SKC 29/22 A2997 =
2015-09-03 09:45 METAR KFDK 031345Z 00000KT 10SM SKC 27/22 A2997 =
2015-09-03 08:50 METAR KFDK 031250Z 00000KT 10SM SKC 24/22 A2998 =
2015-09-03 07:45 METAR KFDK 031145Z 00000KT 10SM SKC 21/21 A2997 =
2015-09-03 06:50 METAR KFDK 031050Z 00000KT 10SM SKC 19/19 A2995 =
2015-09-03 06:20 METAR KFDK 031020Z AUTO 00000KT 2 1/2SM BR CLR 19/19 A2994 RMK AO2 LTG DSNT E
                 AND W =
2015-09-03 05:40 METAR KFDK 030940Z AUTO 00000KT 2 1/2SM BR CLR 19/19 A2994 RMK AO2 =
2015-09-03 05:00 METAR KFDK 030900Z AUTO 00000KT 7SM CLR 20/20 A2994 =
2015-09-03 04:40 METAR KFDK 030840Z AUTO 00000KT 5SM BR CLR 20/20 A2994 RMK AO2 LTG DSNT E AND NW
                 =
2015-09-03 04:20 METAR KFDK 030820Z AUTO 17004KT 5SM BR CLR 20/20 A2994 RMK AO2 LTG DSNT E =
2015-09-03 04:00 METAR KFDK 030800Z AUTO 00000KT 5SM BR CLR 20/20 A2994 RMK AO2 =
2015-09-03 03:40 METAR KFDK 030740Z AUTO 14003KT 5SM BR CLR 20/20 A2994 RMK AO2 =
2015-09-03 03:20 METAR KFDK 030720Z AUTO 14003KT 5SM BR CLR 20/20 A2994 RMK AO2 =
2015-09-03 03:00 METAR KFDK 030700Z AUTO 17004KT 5SM BR CLR 20/20 A2994 RMK AO2 =
2015-09-03 02:40 METAR KFDK 030640Z AUTO 14003KT 2SM BR CLR 20/20 A2995 RMK AO2 =
2015-09-03 02:00 METAR KFDK 030600Z AUTO 00000KT 2 1/2SM BR CLR 20/20 A2996 RMK AO2 VIS 1 3/4V4 =
2015-09-03 01:40 METAR KFDK 030540Z AUTO 00000KT 2SM BR CLR 20/20 A2997 RMK AO2 LTG DSNT E =
2015-09-03 01:20 METAR KFDK 030520Z AUTO 00000KT 1/2SM FG BKN003 20/20 A2997 RMK AO2 =
2015-09-03 01:00 METAR KFDK 030500Z AUTO 00000KT 1/2SM FG VV005 20/20 A2997 RMK AO2 =
2015-09-03 00:40 METAR KFDK 030440Z AUTO 00000KT 3SM BR CLR 20/20 A2998 RMK AO2 =
2015-09-03 00:20 METAR KFDK 030420Z AUTO 14003KT 1SM BR VV007 20/20 A2998 RMK AO2 =
2015-09-03 00:00 METAR KFDK 030400Z AUTO 00000KT 2 1/2SM BR CLR 20/20 A2998 RMK AO2 =

Support USWX by starting your Amazon purchase here.